sensor_id;sensor_type;location;lat;lon;timestamp;pressure;altitude;pressure_sealevel;temperature;humidity
9035;BME280;4552;43.422;24.592;2023-02-12T00:01:36;100992.28;;;2.17;58.77
9035;BME280;4552;43.422;24.592;2023-02-12T00:04:04;100975.31;;;2.00;59.29
9035;BME280;4552;43.422;24.592;2023-02-12T00:06:32;101011.97;;;2.14;59.34
9035;BME280;4552;43.422;24.592;2023-02-12T00:09:04;100990.63;;;1.96;59.63
9035;BME280;4552;43.422;24.592;2023-02-12T00:11:32;100976.66;;;1.91;59.88
9035;BME280;4552;43.422;24.592;2023-02-12T00:14:01;101006.41;;;2.03;59.67
9035;BME280;4552;43.422;24.592;2023-02-12T00:16:32;101000.28;;;2.01;60.08
9035;BME280;4552;43.422;24.592;2023-02-12T00:19:02;101013.03;;;1.97;60.43
9035;BME280;4552;43.422;24.592;2023-02-12T00:21:30;101002.47;;;1.91;60.42
9035;BME280;4552;43.422;24.592;2023-02-12T00:23:59;100994.09;;;1.74;60.94
9035;BME280;4552;43.422;24.592;2023-02-12T00:26:29;100992.25;;;1.71;61.21
9035;BME280;4552;43.422;24.592;2023-02-12T00:29:01;100996.19;;;1.84;60.73
9035;BME280;4552;43.422;24.592;2023-02-12T00:31:33;100984.47;;;1.70;60.27
9035;BME280;4552;43.422;24.592;2023-02-12T00:34:01;100998.44;;;1.75;60.77
9035;BME280;4552;43.422;24.592;2023-02-12T00:36:30;101001.84;;;1.74;60.55
9035;BME280;4552;43.422;24.592;2023-02-12T00:39:06;101010.50;;;1.76;60.33
9035;BME280;4552;43.422;24.592;2023-02-12T00:41:36;100982.38;;;1.60;60.54
9035;BME280;4552;43.422;24.592;2023-02-12T00:44:04;100984.84;;;1.57;60.43
9035;BME280;4552;43.422;24.592;2023-02-12T00:46:40;100981.06;;;1.49;60.20
9035;BME280;4552;43.422;24.592;2023-02-12T00:49:07;101010.84;;;1.63;60.37
9035;BME280;4552;43.422;24.592;2023-02-12T00:51:37;101007.16;;;1.56;59.97
9035;BME280;4552;43.422;24.592;2023-02-12T00:54:04;100981.31;;;1.55;59.86
9035;BME280;4552;43.422;24.592;2023-02-12T00:56:32;101012.84;;;1.70;59.10
9035;BME280;4552;43.422;24.592;2023-02-12T00:58:59;101018.00;;;1.70;58.78
9035;BME280;4552;43.422;24.592;2023-02-12T01:01:27;100993.63;;;1.62;58.66
9035;BME280;4552;43.422;24.592;2023-02-12T01:03:58;100965.53;;;1.47;58.95
9035;BME280;4552;43.422;24.592;2023-02-12T01:06:27;100986.47;;;1.77;57.85
9035;BME280;4552;43.422;24.592;2023-02-12T01:08:57;100937.78;;;1.64;56.71
9035;BME280;4552;43.422;24.592;2023-02-12T01:11:24;100955.97;;;1.89;56.84
9035;BME280;4552;43.422;24.592;2023-02-12T01:13:53;100960.75;;;2.02;56.48
9035;BME280;4552;43.422;24.592;2023-02-12T01:16:22;100937.69;;;1.83;56.73
9035;BME280;4552;43.422;24.592;2023-02-12T01:18:54;100940.53;;;1.91;56.51
9035;BME280;4552;43.422;24.592;2023-02-12T01:21:26;100954.06;;;2.07;56.36
9035;BME280;4552;43.422;24.592;2023-02-12T01:23:58;100948.78;;;2.28;55.54
9035;BME280;4552;43.422;24.592;2023-02-12T01:26:31;100949.22;;;2.40;55.51
9035;BME280;4552;43.422;24.592;2023-02-12T01:29:00;100941.00;;;2.51;54.70
9035;BME280;4552;43.422;24.592;2023-02-12T01:31:29;100938.50;;;2.54;54.69
9035;BME280;4552;43.422;24.592;2023-02-12T01:33:59;100922.81;;;2.48;54.78
9035;BME280;4552;43.422;24.592;2023-02-12T01:36:30;100921.41;;;2.58;54.44
9035;BME280;4552;43.422;24.592;2023-02-12T01:38:58;100895.03;;;2.41;54.11
9035;BME280;4552;43.422;24.592;2023-02-12T01:41:31;100901.72;;;2.36;54.20
9035;BME280;4552;43.422;24.592;2023-02-12T01:44:10;100900.09;;;2.38;54.32
9035;BME280;4552;43.422;24.592;2023-02-12T01:46:39;100944.94;;;2.65;54.21
9035;BME280;4552;43.422;24.592;2023-02-12T01:49:13;100895.13;;;2.44;54.33
9035;BME280;4552;43.422;24.592;2023-02-12T01:51:52;100909.50;;;2.61;54.30
9035;BME280;4552;43.422;24.592;2023-02-12T01:54:21;100945.28;;;2.76;54.33
9035;BME280;4552;43.422;24.592;2023-02-12T01:56:58;100938.69;;;2.84;54.14
9035;BME280;4552;43.422;24.592;2023-02-12T01:59:25;100944.09;;;2.91;54.17
9035;BME280;4552;43.422;24.592;2023-02-12T02:01:54;100900.84;;;2.61;54.51
9035;BME280;4552;43.422;24.592;2023-02-12T02:04:25;100905.38;;;2.68;54.39
9035;BME280;4552;43.422;24.592;2023-02-12T02:06:58;100935.84;;;2.76;55.00
9035;BME280;4552;43.422;24.592;2023-02-12T02:09:30;100942.75;;;2.77;55.03
9035;BME280;4552;43.422;24.592;2023-02-12T02:11:58;100941.00;;;2.76;55.14
9035;BME280;4552;43.422;24.592;2023-02-12T02:14:44;100962.66;;;2.80;55.43
9035;BME280;4552;43.422;24.592;2023-02-12T02:17:23;100957.56;;;2.83;55.64
9035;BME280;4552;43.422;24.592;2023-02-12T02:23:33;100959.22;;;2.79;56.41
9035;BME280;4552;43.422;24.592;2023-02-12T02:26:26;100959.06;;;2.75;56.50
9035;BME280;4552;43.422;24.592;2023-02-12T02:29:01;100937.88;;;2.60;57.23
9035;BME280;4552;43.422;24.592;2023-02-12T02:31:37;100957.03;;;2.66;57.16
9035;BME280;4552;43.422;24.592;2023-02-12T02:34:14;100918.44;;;2.46;57.86
9035;BME280;4552;43.422;24.592;2023-02-12T02:36:46;100952.53;;;2.61;57.85
9035;BME280;4552;43.422;24.592;2023-02-12T02:39:24;100935.50;;;2.66;57.33
9035;BME280;4552;43.422;24.592;2023-02-12T02:41:56;100912.53;;;2.50;57.99
9035;BME280;4552;43.422;24.592;2023-02-12T02:44:33;100951.16;;;2.70;58.55
9035;BME280;4552;43.422;24.592;2023-02-12T02:47:06;100950.19;;;2.68;58.69
9035;BME280;4552;43.422;24.592;2023-02-12T02:49:39;100934.66;;;2.67;58.34
9035;BME280;4552;43.422;24.592;2023-02-12T02:52:13;100922.31;;;2.58;58.24
9035;BME280;4552;43.422;24.592;2023-02-12T02:54:47;100942.66;;;2.74;58.11
9035;BME280;4552;43.422;24.592;2023-02-12T02:57:18;100934.91;;;2.74;58.21
9035;BME280;4552;43.422;24.592;2023-02-12T03:00:03;100949.16;;;2.88;57.91
9035;BME280;4552;43.422;24.592;2023-02-12T03:02:39;100944.00;;;2.88;56.94
9035;BME280;4552;43.422;24.592;2023-02-12T03:05:13;100919.59;;;2.80;57.35
9035;BME280;4552;43.422;24.592;2023-02-12T03:07:45;100935.59;;;2.95;56.75
9035;BME280;4552;43.422;24.592;2023-02-12T03:10:19;100930.97;;;2.85;56.95
9035;BME280;4552;43.422;24.592;2023-02-12T03:12:53;100942.34;;;2.90;56.77
9035;BME280;4552;43.422;24.592;2023-02-12T03:15:27;100943.34;;;2.95;57.18
9035;BME280;4552;43.422;24.592;2023-02-12T03:18:03;100967.75;;;3.03;57.13
9035;BME280;4552;43.422;24.592;2023-02-12T03:20:35;100966.13;;;3.05;57.39
9035;BME280;4552;43.422;24.592;2023-02-12T03:23:11;100960.16;;;3.08;57.08
9035;BME280;4552;43.422;24.592;2023-02-12T03:25:45;100957.81;;;3.15;56.57
9035;BME280;4552;43.422;24.592;2023-02-12T03:28:18;100941.06;;;3.04;56.95
9035;BME280;4552;43.422;24.592;2023-02-12T03:30:51;100949.13;;;3.13;56.93
9035;BME280;4552;43.422;24.592;2023-02-12T03:33:33;100944.75;;;3.11;57.20
9035;BME280;4552;43.422;24.592;2023-02-12T03:36:10;100928.13;;;3.04;56.98
9035;BME280;4552;43.422;24.592;2023-02-12T03:38:48;100950.91;;;3.14;56.80
9035;BME280;4552;43.422;24.592;2023-02-12T03:41:20;100942.28;;;3.15;56.89
9035;BME280;4552;43.422;24.592;2023-02-12T03:43:53;100928.38;;;3.12;56.64
9035;BME280;4552;43.422;24.592;2023-02-12T03:46:24;100912.44;;;2.98;56.48
9035;BME280;4552;43.422;24.592;2023-02-12T03:49:13;100945.91;;;3.20;57.09
9035;BME280;4552;43.422;24.592;2023-02-12T03:51:44;100944.97;;;3.18;57.03
9035;BME280;4552;43.422;24.592;2023-02-12T03:54:13;100943.03;;;3.11;57.39
9035;BME280;4552;43.422;24.592;2023-02-12T03:56:45;100942.06;;;3.08;57.13
9035;BME280;4552;43.422;24.592;2023-02-12T03:59:16;100949.72;;;3.05;56.95
9035;BME280;4552;43.422;24.592;2023-02-12T04:01:44;100924.25;;;2.90;57.01
9035;BME280;4552;43.422;24.592;2023-02-12T04:04:15;100952.34;;;3.06;57.55
9035;BME280;4552;43.422;24.592;2023-02-12T04:06:44;100943.56;;;3.01;57.86
9035;BME280;4552;43.422;24.592;2023-02-12T04:09:14;100954.19;;;3.10;57.55
9035;BME280;4552;43.422;24.592;2023-02-12T04:12:02;100960.66;;;2.96;57.96
9035;BME280;4552;43.422;24.592;2023-02-12T04:14:40;100971.44;;;3.10;57.83
9035;BME280;4552;43.422;24.592;2023-02-12T04:17:19;100964.47;;;3.09;58.13
9035;BME280;4552;43.422;24.592;2023-02-12T04:19:59;100941.31;;;2.85;58.55
9035;BME280;4552;43.422;24.592;2023-02-12T04:22:43;100951.81;;;2.90;58.60
9035;BME280;4552;43.422;24.592;2023-02-12T04:25:20;100943.69;;;2.79;59.05
9035;BME280;4552;43.422;24.592;2023-02-12T04:27:56;100983.06;;;2.97;59.36
9035;BME280;4552;43.422;24.592;2023-02-12T04:30:27;100964.69;;;2.88;59.01
9035;BME280;4552;43.422;24.592;2023-02-12T04:33:00;100985.88;;;3.03;59.10
9035;BME280;4552;43.422;24.592;2023-02-12T04:35:32;100989.19;;;2.99;59.16
9035;BME280;4552;43.422;24.592;2023-02-12T04:38:08;100984.72;;;2.95;59.28
9035;BME280;4552;43.422;24.592;2023-02-12T04:40:38;100979.25;;;2.86;60.12
9035;BME280;4552;43.422;24.592;2023-02-12T04:43:07;101004.66;;;2.98;59.65
9035;BME280;4552;43.422;24.592;2023-02-12T04:45:36;100995.91;;;2.94;59.58
9035;BME280;4552;43.422;24.592;2023-02-12T04:48:04;100996.84;;;2.96;59.00
9035;BME280;4552;43.422;24.592;2023-02-12T04:50:39;101009.97;;;3.02;59.43
9035;BME280;4552;43.422;24.592;2023-02-12T04:53:13;100998.59;;;2.97;59.62
9035;BME280;4552;43.422;24.592;2023-02-12T04:55:43;101004.69;;;2.99;59.65
9035;BME280;4552;43.422;24.592;2023-02-12T04:58:11;101004.69;;;2.99;59.53
9035;BME280;4552;43.422;24.592;2023-02-12T05:00:39;101010.56;;;2.95;60.33
9035;BME280;4552;43.422;24.592;2023-02-12T05:03:06;101023.19;;;3.11;59.41
9035;BME280;4552;43.422;24.592;2023-02-12T05:05:37;101016.94;;;3.05;60.22
9035;BME280;4552;43.422;24.592;2023-02-12T05:08:05;101021.84;;;3.22;59.69
9035;BME280;4552;43.422;24.592;2023-02-12T05:10:32;101030.06;;;3.11;59.55
9035;BME280;4552;43.422;24.592;2023-02-12T05:12:59;101035.41;;;3.15;59.91
9035;BME280;4552;43.422;24.592;2023-02-12T05:15:26;101024.16;;;3.15;59.66
9035;BME280;4552;43.422;24.592;2023-02-12T05:17:53;101016.88;;;3.03;59.75
9035;BME280;4552;43.422;24.592;2023-02-12T05:20:22;101025.34;;;2.98;60.28
9035;BME280;4552;43.422;24.592;2023-02-12T05:22:53;101008.25;;;2.78;60.61
9035;BME280;4552;43.422;24.592;2023-02-12T05:25:20;101024.88;;;2.86;60.44
9035;BME280;4552;43.422;24.592;2023-02-12T05:27:48;100993.44;;;2.74;60.28
9035;BME280;4552;43.422;24.592;2023-02-12T05:30:16;100999.50;;;2.74;60.82
9035;BME280;4552;43.422;24.592;2023-02-12T05:32:48;101019.63;;;2.83;60.69
9035;BME280;4552;43.422;24.592;2023-02-12T05:35:21;101008.53;;;2.62;60.86
9035;BME280;4552;43.422;24.592;2023-02-12T05:38:12;101012.22;;;2.68;61.07
9035;BME280;4552;43.422;24.592;2023-02-12T05:40:42;101031.38;;;2.73;61.33
9035;BME280;4552;43.422;24.592;2023-02-12T05:43:09;101030.75;;;2.80;61.10
9035;BME280;4552;43.422;24.592;2023-02-12T05:45:37;101058.00;;;2.96;61.86
9035;BME280;4552;43.422;24.592;2023-02-12T05:48:06;101048.34;;;2.90;61.95
9035;BME280;4552;43.422;24.592;2023-02-12T05:50:33;101056.03;;;2.89;62.49
9035;BME280;4552;43.422;24.592;2023-02-12T05:53:00;101065.75;;;2.96;61.40
9035;BME280;4552;43.422;24.592;2023-02-12T05:55:29;101042.34;;;2.91;61.25
9035;BME280;4552;43.422;24.592;2023-02-12T05:57:56;101025.88;;;2.89;61.45
9035;BME280;4552;43.422;24.592;2023-02-12T06:00:23;101064.06;;;2.96;61.45
9035;BME280;4552;43.422;24.592;2023-02-12T06:02:50;101082.72;;;3.13;61.22
9035;BME280;4552;43.422;24.592;2023-02-12T06:05:18;101060.00;;;3.04;61.33
9035;BME280;4552;43.422;24.592;2023-02-12T06:07:45;101052.34;;;3.07;60.81
9035;BME280;4552;43.422;24.592;2023-02-12T06:10:12;101080.00;;;3.08;62.05
9035;BME280;4552;43.422;24.592;2023-02-12T06:12:41;101039.16;;;3.00;61.06
9035;BME280;4552;43.422;24.592;2023-02-12T06:15:12;101041.69;;;2.98;61.02
9035;BME280;4552;43.422;24.592;2023-02-12T06:17:39;101085.03;;;3.30;60.61
9035;BME280;4552;43.422;24.592;2023-02-12T06:20:07;101099.13;;;3.38;60.93
9035;BME280;4552;43.422;24.592;2023-02-12T06:22:35;101088.81;;;3.40;61.30
9035;BME280;4552;43.422;24.592;2023-02-12T06:25:04;101068.91;;;3.37;60.73
9035;BME280;4552;43.422;24.592;2023-02-12T06:27:31;101068.53;;;3.25;60.87
9035;BME280;4552;43.422;24.592;2023-02-12T06:30:01;101107.19;;;3.47;60.20
9035;BME280;4552;43.422;24.592;2023-02-12T06:32:28;101080.41;;;3.20;60.74
9035;BME280;4552;43.422;24.592;2023-02-12T06:34:55;101107.72;;;3.37;61.04
9035;BME280;4552;43.422;24.592;2023-02-12T06:37:23;101097.19;;;3.31;60.75
9035;BME280;4552;43.422;24.592;2023-02-12T06:39:50;101110.97;;;3.32;60.95
9035;BME280;4552;43.422;24.592;2023-02-12T06:42:18;101099.59;;;3.27;61.42
9035;BME280;4552;43.422;24.592;2023-02-12T06:44:45;101129.22;;;3.36;60.68
9035;BME280;4552;43.422;24.592;2023-02-12T06:47:13;101117.13;;;3.35;61.39
9035;BME280;4552;43.422;24.592;2023-02-12T06:49:41;101099.56;;;3.25;61.56
9035;BME280;4552;43.422;24.592;2023-02-12T06:52:08;101122.25;;;3.34;60.70
9035;BME280;4552;43.422;24.592;2023-02-12T06:54:35;101119.63;;;3.32;61.03
9035;BME280;4552;43.422;24.592;2023-02-12T06:57:02;101112.91;;;3.37;61.33
9035;BME280;4552;43.422;24.592;2023-02-12T06:59:32;101110.53;;;3.43;60.46
9035;BME280;4552;43.422;24.592;2023-02-12T07:01:59;101116.59;;;3.45;60.62
9035;BME280;4552;43.422;24.592;2023-02-12T07:04:28;101127.69;;;3.67;60.19
9035;BME280;4552;43.422;24.592;2023-02-12T07:06:57;101117.84;;;3.56;60.06
9035;BME280;4552;43.422;24.592;2023-02-12T07:09:25;101123.06;;;3.58;60.27
9035;BME280;4552;43.422;24.592;2023-02-12T07:11:53;101147.22;;;3.84;60.00
9035;BME280;4552;43.422;24.592;2023-02-12T07:14:57;101139.56;;;3.87;59.72
9035;BME280;4552;43.422;24.592;2023-02-12T07:17:32;101136.19;;;3.89;59.96
9035;BME280;4552;43.422;24.592;2023-02-12T07:20:02;101134.97;;;3.78;59.20
9035;BME280;4552;43.422;24.592;2023-02-12T07:22:29;101156.59;;;4.07;58.39
9035;BME280;4552;43.422;24.592;2023-02-12T07:24:59;101146.69;;;4.20;58.61
9035;BME280;4552;43.422;24.592;2023-02-12T07:27:41;101151.53;;;4.38;57.91
9035;BME280;4552;43.422;24.592;2023-02-12T07:30:09;101147.34;;;4.41;57.71
9035;BME280;4552;43.422;24.592;2023-02-12T07:32:38;101168.38;;;4.80;57.34
9035;BME280;4552;43.422;24.592;2023-02-12T07:35:10;101165.25;;;4.34;57.05
9035;BME280;4552;43.422;24.592;2023-02-12T07:37:37;101164.78;;;4.19;57.87
9035;BME280;4552;43.422;24.592;2023-02-12T07:40:06;101153.19;;;4.36;57.92
9035;BME280;4552;43.422;24.592;2023-02-12T07:42:46;101152.06;;;4.84;56.17
9035;BME280;4552;43.422;24.592;2023-02-12T07:45:19;101158.88;;;4.80;56.09
9035;BME280;4552;43.422;24.592;2023-02-12T07:47:47;101171.41;;;4.95;55.10
9035;BME280;4552;43.422;24.592;2023-02-12T07:50:17;101192.72;;;5.14;54.96
9035;BME280;4552;43.422;24.592;2023-02-12T07:52:47;101182.72;;;5.28;54.97
9035;BME280;4552;43.422;24.592;2023-02-12T07:55:15;101162.78;;;5.25;54.90
9035;BME280;4552;43.422;24.592;2023-02-12T07:57:44;101172.81;;;5.13;55.04
9035;BME280;4552;43.422;24.592;2023-02-12T08:00:12;101188.34;;;5.43;54.30
9035;BME280;4552;43.422;24.592;2023-02-12T08:02:40;101152.19;;;5.18;54.89
9035;BME280;4552;43.422;24.592;2023-02-12T08:05:07;101152.44;;;5.27;54.70
9035;BME280;4552;43.422;24.592;2023-02-12T08:07:36;101185.72;;;5.43;55.11
9035;BME280;4552;43.422;24.592;2023-02-12T08:10:04;101189.91;;;5.38;54.58
9035;BME280;4552;43.422;24.592;2023-02-12T08:12:31;101183.94;;;5.09;56.33
9035;BME280;4552;43.422;24.592;2023-02-12T08:14:58;101180.41;;;5.07;56.26
9035;BME280;4552;43.422;24.592;2023-02-12T08:17:27;101193.88;;;5.24;56.89
9035;BME280;4552;43.422;24.592;2023-02-12T08:19:55;101171.63;;;5.02;56.47
9035;BME280;4552;43.422;24.592;2023-02-12T08:22:22;101173.75;;;4.86;56.36
9035;BME280;4552;43.422;24.592;2023-02-12T08:24:50;101198.59;;;5.09;56.90
9035;BME280;4552;43.422;24.592;2023-02-12T08:27:17;101191.56;;;5.34;56.54
9035;BME280;4552;43.422;24.592;2023-02-12T08:29:45;101207.06;;;5.31;56.23
9035;BME280;4552;43.422;24.592;2023-02-12T08:32:12;101203.13;;;5.14;57.57
9035;BME280;4552;43.422;24.592;2023-02-12T08:34:41;101195.75;;;5.00;57.61
9035;BME280;4552;43.422;24.592;2023-02-12T08:37:10;101216.41;;;4.97;57.79
9035;BME280;4552;43.422;24.592;2023-02-12T08:39:37;101202.69;;;4.99;57.46
9035;BME280;4552;43.422;24.592;2023-02-12T08:42:07;101202.09;;;5.09;57.84
9035;BME280;4552;43.422;24.592;2023-02-12T08:44:35;101210.50;;;5.32;56.76
9035;BME280;4552;43.422;24.592;2023-02-12T08:47:02;101206.84;;;5.24;57.26
9035;BME280;4552;43.422;24.592;2023-02-12T08:49:31;101236.91;;;5.47;56.66
9035;BME280;4552;43.422;24.592;2023-02-12T08:51:59;101205.31;;;5.63;56.42
9035;BME280;4552;43.422;24.592;2023-02-12T08:54:28;101236.69;;;6.37;55.19
9035;BME280;4552;43.422;24.592;2023-02-12T08:56:59;101247.72;;;6.27;54.86
9035;BME280;4552;43.422;24.592;2023-02-12T08:59:29;101251.00;;;6.19;54.47
9035;BME280;4552;43.422;24.592;2023-02-12T09:01:57;101222.28;;;6.14;54.11
9035;BME280;4552;43.422;24.592;2023-02-12T09:04:26;101244.75;;;6.12;54.33
9035;BME280;4552;43.422;24.592;2023-02-12T09:06:54;101234.72;;;5.93;54.51
9035;BME280;4552;43.422;24.592;2023-02-12T09:09:23;101265.03;;;6.27;54.70
9035;BME280;4552;43.422;24.592;2023-02-12T09:11:51;101248.44;;;6.20;54.67
9035;BME280;4552;43.422;24.592;2023-02-12T09:14:22;101247.41;;;6.49;54.81
9035;BME280;4552;43.422;24.592;2023-02-12T09:16:52;101277.72;;;6.49;54.37
9035;BME280;4552;43.422;24.592;2023-02-12T09:19:19;101281.38;;;6.21;55.15
9035;BME280;4552;43.422;24.592;2023-02-12T09:21:50;101258.97;;;6.26;54.58
9035;BME280;4552;43.422;24.592;2023-02-12T09:24:18;101248.06;;;6.41;54.20
9035;BME280;4552;43.422;24.592;2023-02-12T09:26:47;101252.47;;;6.43;53.77
9035;BME280;4552;43.422;24.592;2023-02-12T09:29:15;101261.59;;;6.28;54.50
9035;BME280;4552;43.422;24.592;2023-02-12T09:31:43;101264.75;;;5.82;54.89
9035;BME280;4552;43.422;24.592;2023-02-12T09:34:20;101265.25;;;5.71;55.85
9035;BME280;4552;43.422;24.592;2023-02-12T09:36:48;101273.69;;;5.93;55.20
9035;BME280;4552;43.422;24.592;2023-02-12T09:39:17;101294.75;;;6.04;55.85
9035;BME280;4552;43.422;24.592;2023-02-12T09:42:17;101273.41;;;5.83;56.24
9035;BME280;4552;43.422;24.592;2023-02-12T09:44:54;101292.00;;;5.37;57.80
9035;BME280;4552;43.422;24.592;2023-02-12T09:47:31;101283.50;;;5.43;58.01
9035;BME280;4552;43.422;24.592;2023-02-12T09:53:16;101284.28;;;5.40;58.42
9035;BME280;4552;43.422;24.592;2023-02-12T09:55:45;101302.97;;;5.27;58.93
9035;BME280;4552;43.422;24.592;2023-02-12T09:58:15;101303.06;;;5.30;59.45
9035;BME280;4552;43.422;24.592;2023-02-12T10:00:45;101283.53;;;5.44;59.42
9035;BME280;4552;43.422;24.592;2023-02-12T10:03:43;101282.63;;;5.42;59.13
9035;BME280;4552;43.422;24.592;2023-02-12T10:06:20;101318.53;;;5.86;58.68
9035;BME280;4552;43.422;24.592;2023-02-12T10:09:07;101299.06;;;5.72;58.08
9035;BME280;4552;43.422;24.592;2023-02-12T10:12:07;101287.34;;;5.57;57.88
9035;BME280;4552;43.422;24.592;2023-02-12T10:15:09;101298.09;;;5.98;56.77
9035;BME280;4552;43.422;24.592;2023-02-12T10:17:41;101287.88;;;6.38;55.46
9035;BME280;4552;43.422;24.592;2023-02-12T10:26:18;101306.38;;;7.26;52.92
9035;BME280;4552;43.422;24.592;2023-02-12T10:28:46;101285.69;;;7.74;51.56
9035;BME280;4552;43.422;24.592;2023-02-12T10:31:20;101324.94;;;7.83;50.25
9035;BME280;4552;43.422;24.592;2023-02-12T10:33:50;101329.44;;;7.90;49.89
9035;BME280;4552;43.422;24.592;2023-02-12T10:36:28;101319.28;;;8.03;49.69
9035;BME280;4552;43.422;24.592;2023-02-12T10:39:10;101322.25;;;7.78;49.55
9035;BME280;4552;43.422;24.592;2023-02-12T10:42:02;101300.34;;;7.69;48.29
9035;BME280;4552;43.422;24.592;2023-02-12T10:44:38;101302.00;;;7.64;48.98
9035;BME280;4552;43.422;24.592;2023-02-12T10:47:08;101293.47;;;7.72;48.95
9035;BME280;4552;43.422;24.592;2023-02-12T10:49:38;101299.69;;;7.79;49.17
9035;BME280;4552;43.422;24.592;2023-02-12T10:52:14;101329.84;;;7.68;48.56
9035;BME280;4552;43.422;24.592;2023-02-12T10:54:56;101304.41;;;7.55;49.34
9035;BME280;4552;43.422;24.592;2023-02-12T10:57:29;101330.81;;;7.71;49.29
9035;BME280;4552;43.422;24.592;2023-02-12T11:00:22;101310.75;;;7.69;48.89
9035;BME280;4552;43.422;24.592;2023-02-12T11:03:01;101332.63;;;7.75;49.08
9035;BME280;4552;43.422;24.592;2023-02-12T11:05:31;101324.09;;;7.82;49.14
9035;BME280;4552;43.422;24.592;2023-02-12T11:08:01;101332.66;;;8.21;48.56
9035;BME280;4552;43.422;24.592;2023-02-12T11:10:36;101301.25;;;8.64;47.56
9035;BME280;4552;43.422;24.592;2023-02-12T11:13:21;101328.94;;;8.55;47.00
9035;BME280;4552;43.422;24.592;2023-02-12T11:15:51;101331.13;;;8.31;47.14
9035;BME280;4552;43.422;24.592;2023-02-12T11:18:31;101298.97;;;8.32;47.00
9035;BME280;4552;43.422;24.592;2023-02-12T11:21:05;101303.06;;;8.21;47.28
9035;BME280;4552;43.422;24.592;2023-02-12T11:23:37;101320.25;;;8.57;46.88
9035;BME280;4552;43.422;24.592;2023-02-12T11:26:23;101299.63;;;8.71;46.17
9035;BME280;4552;43.422;24.592;2023-02-12T11:29:01;101334.44;;;8.73;46.92
9035;BME280;4552;43.422;24.592;2023-02-12T11:31:35;101344.41;;;8.44;49.06
9035;BME280;4552;43.422;24.592;2023-02-12T11:34:13;101308.47;;;8.30;47.21
9035;BME280;4552;43.422;24.592;2023-02-12T11:36:46;101325.66;;;8.19;47.06
9035;BME280;4552;43.422;24.592;2023-02-12T11:39:19;101339.59;;;8.21;47.01
9035;BME280;4552;43.422;24.592;2023-02-12T11:42:13;101315.97;;;8.13;46.92
9035;BME280;4552;43.422;24.592;2023-02-12T11:50:50;101345.75;;;8.23;46.61
9035;BME280;4552;43.422;24.592;2023-02-12T12:11:55;101325.03;;;7.44;52.56
9035;BME280;4552;43.422;24.592;2023-02-12T12:14:27;101344.53;;;7.23;54.28
9035;BME280;4552;43.422;24.592;2023-02-12T12:17:13;101312.34;;;7.21;54.71
9035;BME280;4552;43.422;24.592;2023-02-12T12:43:45;101348.69;;;6.79;60.69
9035;BME280;4552;43.422;24.592;2023-02-12T12:46:30;101365.59;;;6.96;61.45
9035;BME280;4552;43.422;24.592;2023-02-12T17:15:29;101701.56;;;4.53;78.68
9035;BME280;4552;43.422;24.592;2023-02-12T17:18:02;101711.81;;;4.72;78.66
9035;BME280;4552;43.422;24.592;2023-02-12T17:20:50;101710.81;;;4.90;77.52
9035;BME280;4552;43.422;24.592;2023-02-12T17:23:24;101721.38;;;4.95;76.93
9035;BME280;4552;43.422;24.592;2023-02-12T17:26:01;101720.63;;;5.21;75.84
9035;BME280;4552;43.422;24.592;2023-02-12T17:28:54;101736.53;;;5.30;75.73
9035;BME280;4552;43.422;24.592;2023-02-12T17:31:51;101730.63;;;5.12;75.33
9035;BME280;4552;43.422;24.592;2023-02-12T17:34:25;101735.19;;;4.95;75.85
9035;BME280;4552;43.422;24.592;2023-02-12T17:37:05;101709.69;;;4.84;75.90
9035;BME280;4552;43.422;24.592;2023-02-12T17:39:35;101744.66;;;4.93;76.95
9035;BME280;4552;43.422;24.592;2023-02-12T17:42:05;101745.13;;;4.83;77.51
9035;BME280;4552;43.422;24.592;2023-02-12T17:44:33;101732.44;;;4.91;76.66
9035;BME280;4552;43.422;24.592;2023-02-12T17:47:19;101737.69;;;4.92;75.94
9035;BME280;4552;43.422;24.592;2023-02-12T17:50:15;101711.88;;;4.73;76.02
9035;BME280;4552;43.422;24.592;2023-02-12T17:52:57;101726.56;;;4.73;74.66
9035;BME280;4552;43.422;24.592;2023-02-12T17:55:28;101726.19;;;4.64;75.70
9035;BME280;4552;43.422;24.592;2023-02-12T17:57:55;101741.03;;;4.68;76.04
9035;BME280;4552;43.422;24.592;2023-02-12T18:00:39;101748.81;;;4.68;76.39
9035;BME280;4552;43.422;24.592;2023-02-12T18:03:11;101752.59;;;4.76;74.88
9035;BME280;4552;43.422;24.592;2023-02-12T18:06:08;101707.22;;;4.43;75.66
9035;BME280;4552;43.422;24.592;2023-02-12T18:08:39;101731.41;;;4.43;76.46
9035;BME280;4552;43.422;24.592;2023-02-12T18:11:10;101714.09;;;4.42;76.00
9035;BME280;4552;43.422;24.592;2023-02-12T18:13:41;101727.66;;;4.57;75.77
9035;BME280;4552;43.422;24.592;2023-02-12T18:16:13;101741.41;;;4.55;76.34
9035;BME280;4552;43.422;24.592;2023-02-12T18:19:02;101733.72;;;4.36;76.94
9035;BME280;4552;43.422;24.592;2023-02-12T18:21:43;101713.38;;;4.24;77.06
9035;BME280;4552;43.422;24.592;2023-02-12T18:24:19;101714.84;;;4.18;77.31
9035;BME280;4552;43.422;24.592;2023-02-12T18:27:19;101704.94;;;4.08;77.80
9035;BME280;4552;43.422;24.592;2023-02-12T18:30:13;101735.38;;;4.13;78.32
9035;BME280;4552;43.422;24.592;2023-02-12T18:32:47;101736.03;;;4.08;78.04
9035;BME280;4552;43.422;24.592;2023-02-12T18:35:41;101752.28;;;4.46;76.98
9035;BME280;4552;43.422;24.592;2023-02-12T18:38:22;101737.91;;;4.32;76.99
9035;BME280;4552;43.422;24.592;2023-02-12T18:41:07;101768.34;;;4.38;77.74
9035;BME280;4552;43.422;24.592;2023-02-12T18:43:39;101760.53;;;4.36;77.69
9035;BME280;4552;43.422;24.592;2023-02-12T18:46:09;101733.19;;;4.02;78.75
9035;BME280;4552;43.422;24.592;2023-02-12T18:49:00;101736.47;;;3.77;79.17
9035;BME280;4552;43.422;24.592;2023-02-12T18:52:08;101751.66;;;3.70;79.67
9035;BME280;4552;43.422;24.592;2023-02-12T18:54:35;101737.38;;;3.58;80.34
9035;BME280;4552;43.422;24.592;2023-02-12T18:57:06;101766.06;;;3.84;79.22
9035;BME280;4552;43.422;24.592;2023-02-12T18:59:51;101733.53;;;3.30;80.27
9035;BME280;4552;43.422;24.592;2023-02-12T19:02:42;101751.91;;;3.17;81.03
9035;BME280;4552;43.422;24.592;2023-02-12T19:05:31;101766.09;;;3.07;82.25
9035;BME280;4552;43.422;24.592;2023-02-12T19:08:34;101748.28;;;3.13;81.76
9035;BME280;4552;43.422;24.592;2023-02-12T19:11:16;101740.59;;;3.15;81.47